Time;durP1;ratioP1;P1;durP2;ratioP2;P2;SDS_P1;SDS_P2;PMS_P1;PMS_P2;Temp;Humidity;BMP_temperature;BMP_pressure;BME280_temperature;BME280_humidity;BME280_pressure;Samples;Min_cycle;Max_cycle;Signal;HPM_P1;HPM_P2
2021/12/15 00:02:19;;;;;;;40.92;24.75;;;7.50;99.90;;;;;;5055118;28;20749;-69
2021/12/15 00:04:47;;;;;;;41.95;23.40;;;7.50;99.90;;;;;;5054984;28;20196;-69
2021/12/15 00:07:15;;;;;;;43.60;26.67;;;7.50;99.90;;;;;;5054979;28;20228;-69
2021/12/15 00:09:42;;;;;;;46.42;26.55;;;7.50;99.90;;;;;;5055337;28;20290;-69
2021/12/15 00:12:13;;;;;;;42.30;24.42;;;7.40;99.90;;;;;;5055075;28;20654;-69
2021/12/15 00:14:41;;;;;;;43.40;25.15;;;7.40;99.90;;;;;;5055068;28;20685;-69
2021/12/15 00:17:08;;;;;;;45.92;25.33;;;7.40;99.90;;;;;;5055443;28;20235;-69
2021/12/15 00:19:35;;;;;;;44.13;26.02;;;7.30;99.90;;;;;;5054845;28;20245;-69
2021/12/15 00:22:02;;;;;;;41.63;24.80;;;7.30;99.90;;;;;;5055010;28;20257;-69
2021/12/15 00:24:31;;;;;;;40.65;24.98;;;7.30;99.90;;;;;;5054788;28;20239;-69
2021/12/15 00:26:58;;;;;;;42.25;25.75;;;7.30;99.90;;;;;;5054654;28;20627;-69
2021/12/15 00:29:25;;;;;;;37.75;24.00;;;7.30;99.90;;;;;;5054990;28;20239;-69
2021/12/15 00:31:53;;;;;;;43.10;26.33;;;7.40;99.90;;;;;;5054646;28;20622;-69
2021/12/15 00:34:21;;;;;;;50.70;28.17;;;7.40;99.90;;;;;;5054535;28;20716;-69
2021/12/15 00:36:49;;;;;;;46.53;27.05;;;7.50;99.90;;;;;;5054460;28;20241;-69
2021/12/15 00:39:18;;;;;;;49.83;27.38;;;7.50;99.90;;;;;;5054896;28;20624;-69
2021/12/15 00:41:47;;;;;;;43.25;25.25;;;7.50;99.90;;;;;;5054858;28;20246;-69
2021/12/15 00:44:15;;;;;;;44.17;24.50;;;7.50;99.90;;;;;;5054176;28;20729;-69
2021/12/15 00:46:43;;;;;;;45.00;25.55;;;7.50;99.90;;;;;;5054513;28;20639;-69
2021/12/15 00:49:11;;;;;;;48.08;27.90;;;7.50;99.90;;;;;;5054603;28;20242;-69
2021/12/15 00:51:39;;;;;;;48.95;28.00;;;7.40;99.90;;;;;;5054314;28;20285;-69
2021/12/15 00:54:07;;;;;;;48.38;29.02;;;7.40;99.90;;;;;;5054124;28;20330;-69
2021/12/15 00:56:34;;;;;;;52.58;30.85;;;7.30;99.90;;;;;;5054387;28;20290;-69
2021/12/15 00:59:04;;;;;;;52.58;30.00;;;7.20;99.90;;;;;;5053942;28;20268;-69
2021/12/15 01:01:31;;;;;;;51.30;29.80;;;7.30;99.90;;;;;;5054258;28;20337;-69
2021/12/15 01:03:58;;;;;;;50.70;29.20;;;7.40;99.90;;;;;;5054237;28;20251;-69
2021/12/15 01:06:29;;;;;;;53.53;29.40;;;7.40;99.90;;;;;;5054076;28;20309;-69
2021/12/15 01:09:02;;;;;;;48.50;27.90;;;7.30;99.90;;;;;;5054437;28;20646;-69
2021/12/15 01:11:46;;;;;;;52.60;30.52;;;7.30;99.90;;;;;;5054247;28;20257;-69
2021/12/15 01:19:45;;;;;;;49.15;29.58;;;7.30;99.90;;;;;;5054200;28;20321;-69
2021/12/15 01:20:12;;;;;;;50.60;28.38;;;7.20;99.90;;;;;;5053736;28;20201;-69
2021/12/15 01:22:42;;;;;;;49.35;29.38;;;7.20;99.90;;;;;;5053840;28;20289;-69
2021/12/15 01:25:12;;;;;;;52.30;28.65;;;7.20;99.90;;;;;;5053935;28;20223;-69
2021/12/15 01:27:39;;;;;;;48.63;27.42;;;7.30;99.90;;;;;;5054112;28;20310;-69
2021/12/15 01:30:11;;;;;;;47.75;27.25;;;7.40;99.90;;;;;;5054110;28;20294;-69
2021/12/15 01:32:38;;;;;;;47.10;27.85;;;7.30;99.90;;;;;;5053844;28;20269;-69
2021/12/15 01:35:07;;;;;;;49.45;28.20;;;7.30;99.90;;;;;;5053463;28;20239;-69
2021/12/15 01:37:34;;;;;;;46.95;27.40;;;7.30;99.90;;;;;;5053799;28;20677;-69
2021/12/15 01:40:01;;;;;;;51.97;29.63;;;7.40;99.90;;;;;;5053812;28;20238;-69
2021/12/15 01:42:32;;;;;;;47.47;27.42;;;7.40;99.90;;;;;;5053648;28;20227;-69
2021/12/15 01:47:45;;;;;;;45.60;27.17;;;7.40;99.90;;;;;;5053812;28;20229;-69
2021/12/15 01:50:13;;;;;;;49.08;27.02;;;7.40;99.90;;;;;;5053754;28;20242;-69
2021/12/15 01:52:42;;;;;;;49.83;29.15;;;7.40;99.90;;;;;;5053878;28;20255;-69
2021/12/15 01:55:11;;;;;;;49.35;28.17;;;7.30;99.90;;;;;;5053688;28;20290;-69
2021/12/15 01:57:40;;;;;;;45.75;26.65;;;7.30;99.90;;;;;;5053308;28;20286;-69
2021/12/15 02:00:13;;;;;;;46.38;29.20;;;7.40;99.90;;;;;;5053681;28;20294;-69
2021/12/15 02:02:40;;;;;;;42.65;25.15;;;7.40;99.90;;;;;;5055940;28;20306;-69
2021/12/15 02:05:10;;;;;;;44.00;24.33;;;7.60;99.90;;;;;;5057569;28;20332;-69
2021/12/15 02:07:37;;;;;;;38.35;25.92;;;7.80;99.90;;;;;;5057764;28;20759;-69
2021/12/15 02:10:06;;;;;;;40.67;25.33;;;7.80;99.90;;;;;;5057588;28;20290;-69
2021/12/15 02:12:37;;;;;;;43.47;24.98;;;7.70;99.90;;;;;;5057268;28;20685;-69
2021/12/15 02:15:09;;;;;;;46.63;26.45;;;7.60;99.90;;;;;;5057461;28;20192;-69
2021/12/15 02:17:37;;;;;;;41.60;24.25;;;7.50;99.90;;;;;;5057550;28;20294;-69
2021/12/15 02:20:06;;;;;;;38.00;24.10;;;7.70;99.90;;;;;;5057303;28;20289;-69
2021/12/15 02:22:35;;;;;;;36.03;23.25;;;7.80;99.90;;;;;;5057399;28;20624;-69
2021/12/15 02:25:03;;;;;;;36.05;21.77;;;7.90;99.90;;;;;;5057013;28;20643;-69
2021/12/15 02:27:34;;;;;;;35.65;21.88;;;8.10;99.90;;;;;;5057338;28;20251;-69
2021/12/15 02:30:17;;;;;;;35.33;21.98;;;8.20;99.90;;;;;;5057376;28;20243;-69
2021/12/15 02:32:56;;;;;;;32.75;21.05;;;8.20;99.90;;;;;;5057105;28;20231;-69
2021/12/15 02:38:09;;;;;;;32.97;20.65;;;8.40;99.90;;;;;;5057196;28;20241;-69
2021/12/15 02:40:36;;;;;;;30.80;20.48;;;8.50;99.90;;;;;;5056971;28;20294;-69
2021/12/15 02:43:03;;;;;;;34.45;20.95;;;8.50;99.90;;;;;;5057144;28;20638;-69
2021/12/15 02:45:31;;;;;;;35.75;20.65;;;8.50;99.90;;;;;;5056758;28;20617;-69
2021/12/15 02:47:59;;;;;;;31.83;21.50;;;8.50;99.90;;;;;;5056836;28;20230;-69
2021/12/15 02:50:29;;;;;;;33.13;20.38;;;8.50;99.90;;;;;;5056810;28;20612;-69
2021/12/15 02:52:58;;;;;;;33.65;20.70;;;8.50;99.90;;;;;;5056192;28;20262;-69
2021/12/15 02:55:27;;;;;;;35.85;22.40;;;8.50;99.90;;;;;;5056085;28;20236;-69
2021/12/15 02:57:54;;;;;;;36.67;22.50;;;8.20;99.90;;;;;;5056442;28;20298;-69
2021/12/15 03:00:24;;;;;;;35.63;22.85;;;8.00;99.90;;;;;;5056748;28;20242;-69
2021/12/15 03:05:49;;;;;;;33.45;20.63;;;8.00;99.90;;;;;;5056251;28;20195;-69
2021/12/15 03:08:20;;;;;;;34.63;19.65;;;8.10;99.90;;;;;;5056367;28;20286;-69
2021/12/15 03:16:21;;;;;;;22.33;14.05;;;8.20;99.90;;;;;;5056141;28;20183;-69
2021/12/15 03:18:48;;;;;;;19.50;13.77;;;8.30;99.90;;;;;;5055968;28;20655;-69
2021/12/15 03:21:18;;;;;;;19.77;14.48;;;8.40;99.90;;;;;;5056232;28;20290;-69
2021/12/15 03:23:51;;;;;;;18.88;13.90;;;8.30;99.90;;;;;;5056390;28;20246;-69
2021/12/15 03:26:24;;;;;;;24.70;16.98;;;8.20;99.90;;;;;;5056276;28;20200;-69
2021/12/15 03:34:40;;;;;;;26.85;17.85;;;7.90;99.90;;;;;;5055987;28;20280;-69
2021/12/15 03:37:23;;;;;;;33.03;21.10;;;7.80;99.90;;;;;;5055741;28;20207;-69
2021/12/15 03:39:52;;;;;;;37.92;21.67;;;7.80;99.90;;;;;;5055963;28;20207;-69
2021/12/15 03:42:26;;;;;;;34.80;21.23;;;7.70;99.90;;;;;;5056193;28;20299;-69
2021/12/15 03:44:54;;;;;;;37.22;21.55;;;7.60;99.90;;;;;;5055840;28;20198;-69
2021/12/15 03:47:23;;;;;;;33.65;20.73;;;7.60;99.90;;;;;;5055626;28;20634;-69
2021/12/15 03:49:51;;;;;;;30.27;19.00;;;7.60;99.90;;;;;;5055554;28;20670;-69
2021/12/15 03:52:19;;;;;;;26.10;17.30;;;7.50;99.90;;;;;;5055623;28;20290;-69
2021/12/15 03:54:46;;;;;;;26.83;16.95;;;7.70;99.90;;;;;;5055526;28;20623;-69
2021/12/15 03:57:13;;;;;;;27.27;17.20;;;7.90;99.90;;;;;;5055772;28;20294;-69
2021/12/15 03:59:44;;;;;;;25.35;16.58;;;8.00;99.90;;;;;;5055701;28;20207;-69
2021/12/15 04:02:11;;;;;;;27.75;17.90;;;8.10;99.90;;;;;;5054794;28;20184;-69
2021/12/15 04:04:39;;;;;;;23.85;16.67;;;8.20;99.90;;;;;;5055392;28;20254;-69
2021/12/15 04:07:07;;;;;;;28.52;18.77;;;8.20;99.90;;;;;;5055206;28;20238;-69
2021/12/15 04:09:34;;;;;;;30.35;19.83;;;8.10;99.90;;;;;;5054694;28;20246;-69
2021/12/15 04:12:01;;;;;;;24.52;17.20;;;8.00;99.90;;;;;;5055097;28;20227;-69
2021/12/15 04:14:34;;;;;;;30.33;18.77;;;8.10;99.90;;;;;;5055079;28;20224;-69
2021/12/15 04:17:05;;;;;;;27.33;19.67;;;8.20;99.90;;;;;;5054986;28;20250;-69
2021/12/15 04:19:34;;;;;;;28.58;17.90;;;8.30;99.90;;;;;;5054747;28;20273;-69
2021/12/15 04:22:01;;;;;;;21.00;14.10;;;8.30;99.90;;;;;;5055401;28;20606;-69
2021/12/15 04:24:29;;;;;;;14.60;10.57;;;8.40;99.90;;;;;;5054885;28;20259;-69
2021/12/15 04:26:59;;;;;;;16.65;11.50;;;8.40;99.90;;;;;;5055279;28;20235;-69
2021/12/15 04:29:28;;;;;;;13.90;10.18;;;8.40;99.90;;;;;;5054749;28;20219;-69
2021/12/15 04:31:59;;;;;;;14.73;11.00;;;8.40;99.90;;;;;;5055182;28;20209;-69
2021/12/15 04:34:27;;;;;;;15.40;9.30;;;8.40;99.90;;;;;;5054569;28;20252;-70
2021/12/15 04:36:54;;;;;;;9.85;7.85;;;8.40;99.90;;;;;;5054907;28;20298;-69
2021/12/15 04:39:26;;;;;;;10.07;8.25;;;8.50;99.90;;;;;;5054894;28;20650;-69
2021/12/15 04:41:55;;;;;;;13.23;9.77;;;8.50;99.90;;;;;;5054485;28;20630;-69
2021/12/15 04:44:26;;;;;;;12.23;9.32;;;8.30;99.90;;;;;;5054460;28;20227;-69
2021/12/15 04:47:00;;;;;;;15.52;9.80;;;8.40;99.90;;;;;;5054714;28;20302;-69
2021/12/15 04:49:32;;;;;;;13.05;9.43;;;8.50;99.90;;;;;;5054691;28;20262;-69
2021/12/15 04:51:59;;;;;;;14.98;11.18;;;8.50;99.90;;;;;;5054717;28;20207;-69
2021/12/15 04:54:26;;;;;;;12.35;10.05;;;8.50;99.90;;;;;;5054162;28;20261;-68
2021/12/15 04:56:54;;;;;;;16.50;11.80;;;8.50;99.90;;;;;;5054380;28;20199;-69
2021/12/15 04:59:21;;;;;;;17.05;13.68;;;8.50;99.90;;;;;;5054311;28;20242;-69
2021/12/15 05:01:48;;;;;;;19.63;14.20;;;8.40;99.90;;;;;;5054462;28;20295;-69
2021/12/15 05:04:16;;;;;;;21.75;14.48;;;8.40;99.90;;;;;;5054737;28;20310;-69
2021/12/15 05:06:45;;;;;;;19.63;14.25;;;8.40;99.90;;;;;;5054377;28;20253;-69
2021/12/15 05:09:14;;;;;;;20.00;14.55;;;8.40;99.90;;;;;;5053739;28;20270;-69
2021/12/15 05:11:41;;;;;;;20.73;14.80;;;8.40;99.90;;;;;;5054127;28;20203;-69
2021/12/15 05:14:08;;;;;;;19.65;14.80;;;8.40;99.90;;;;;;5054220;28;20314;-69
2021/12/15 05:16:35;;;;;;;21.20;16.48;;;8.40;99.90;;;;;;5054276;28;20294;-69
2021/12/15 05:19:03;;;;;;;20.80;15.55;;;8.30;99.90;;;;;;5054546;28;20265;-69
2021/12/15 05:21:31;;;;;;;15.40;11.85;;;8.30;99.90;;;;;;5054203;28;20238;-69
2021/12/15 05:24:08;;;;;;;15.52;10.90;;;8.40;99.90;;;;;;5053909;28;20230;-69
2021/12/15 05:26:35;;;;;;;15.98;11.00;;;8.30;99.90;;;;;;5053818;28;20257;-69
2021/12/15 05:29:02;;;;;;;15.43;10.50;;;8.40;99.90;;;;;;5054201;28;20442;-69
2021/12/15 05:31:29;;;;;;;14.50;10.55;;;8.40;99.90;;;;;;5054104;28;20203;-68
2021/12/15 05:33:56;;;;;;;12.20;9.50;;;8.40;99.90;;;;;;5053486;28;20255;-69
2021/12/15 05:36:23;;;;;;;14.05;10.00;;;8.40;99.90;;;;;;5052831;28;20211;-69
2021/12/15 05:38:50;;;;;;;12.75;9.85;;;8.40;99.90;;;;;;5053521;28;20200;-69
2021/12/15 05:41:18;;;;;;;12.60;9.75;;;8.40;99.90;;;;;;5053882;28;20235;-69
2021/12/15 05:43:45;;;;;;;11.40;8.50;;;8.50;99.90;;;;;;5053845;28;20255;-69
2021/12/15 05:46:12;;;;;;;11.98;9.85;;;8.40;99.90;;;;;;5053425;28;20242;-68
2021/12/15 05:48:39;;;;;;;14.57;10.82;;;8.30;99.90;;;;;;5053166;28;20262;-68
2021/12/15 05:51:06;;;;;;;13.48;11.10;;;8.30;99.90;;;;;;5053712;28;20234;-69
2021/12/15 05:53:35;;;;;;;16.15;12.50;;;8.30;99.90;;;;;;5053288;28;20757;-69
2021/12/15 05:56:02;;;;;;;16.23;12.18;;;8.30;99.90;;;;;;5053559;28;20211;-69
2021/12/15 05:58:32;;;;;;;16.75;11.73;;;8.30;99.90;;;;;;5053730;28;20287;-69
2021/12/15 06:00:59;;;;;;;15.32;11.30;;;8.30;99.90;;;;;;5054135;28;20199;-69
2021/12/15 06:03:26;;;;;;;14.60;11.00;;;8.30;99.90;;;;;;5053356;28;20256;-69
2021/12/15 06:05:53;;;;;;;15.88;10.95;;;8.40;99.90;;;;;;5053498;28;20246;-69
2021/12/15 06:08:20;;;;;;;12.18;10.18;;;8.40;99.90;;;;;;5053597;28;20311;-69
2021/12/15 06:10:47;;;;;;;12.20;9.45;;;8.40;99.90;;;;;;5053449;28;20286;-69
2021/12/15 06:13:14;;;;;;;12.50;9.82;;;8.40;99.90;;;;;;5053772;28;20257;-69
2021/12/15 06:15:44;;;;;;;12.05;8.57;;;8.40;99.90;;;;;;5053402;28;20235;-69
2021/12/15 06:18:13;;;;;;;11.40;8.30;;;8.40;99.90;;;;;;5053575;28;20204;-69
2021/12/15 06:20:41;;;;;;;13.02;9.43;;;8.40;99.90;;;;;;5053518;28;20235;-69
2021/12/15 06:23:15;;;;;;;11.90;9.52;;;8.40;99.90;;;;;;5052979;28;20310;-69
2021/12/15 06:25:42;;;;;;;14.05;10.98;;;8.40;99.90;;;;;;5053674;28;20200;-69
2021/12/15 06:28:09;;;;;;;16.70;11.63;;;8.40;99.90;;;;;;5053235;28;20318;-69
2021/12/15 06:30:37;;;;;;;16.30;13.10;;;8.40;99.90;;;;;;5053681;28;20694;-69
2021/12/15 06:33:06;;;;;;;18.50;13.85;;;8.40;99.90;;;;;;5053312;28;20254;-69
2021/12/15 06:35:34;;;;;;;16.27;13.48;;;8.40;99.90;;;;;;5053201;28;20249;-69
2021/12/15 06:38:02;;;;;;;18.45;13.80;;;8.40;99.90;;;;;;5053122;28;20208;-69
2021/12/15 06:40:29;;;;;;;17.00;13.38;;;8.40;99.90;;;;;;5053377;28;20231;-69
2021/12/15 06:42:56;;;;;;;20.05;14.48;;;8.40;99.90;;;;;;5053225;28;20769;-69
2021/12/15 06:45:31;;;;;;;23.33;14.48;;;8.40;99.90;;;;;;5053369;28;20205;-69
2021/12/15 06:58:57;;;;;;;19.20;14.52;;;8.40;99.90;;;;;;5056122;28;20198;-69
2021/12/15 07:01:24;;;;;;;19.90;14.77;;;8.40;99.90;;;;;;5056723;28;20299;-69
2021/12/15 07:03:51;;;;;;;20.27;14.70;;;8.40;99.90;;;;;;5056578;28;20255;-69
2021/12/15 07:06:19;;;;;;;20.10;15.05;;;8.40;99.90;;;;;;5056170;28;20291;-69
2021/12/15 07:08:46;;;;;;;21.15;15.23;;;8.40;99.90;;;;;;5056319;28;20622;-69
2021/12/15 07:11:13;;;;;;;19.70;14.32;;;8.40;99.90;;;;;;5056499;28;20553;-69
2021/12/15 07:13:40;;;;;;;22.60;15.57;;;8.40;99.90;;;;;;5056458;28;20313;-69
2021/12/15 07:16:10;;;;;;;22.55;15.95;;;8.40;99.90;;;;;;5055910;28;20231;-69
2021/12/15 07:18:51;;;;;;;20.38;15.65;;;8.40;99.90;;;;;;5055778;28;20207;-69
2021/12/15 07:21:23;;;;;;;22.77;16.38;;;8.50;99.90;;;;;;5056249;28;20207;-69
2021/12/15 07:23:52;;;;;;;21.10;16.35;;;8.50;99.90;;;;;;5056186;28;20234;-69
2021/12/15 07:26:20;;;;;;;22.90;16.80;;;8.50;99.90;;;;;;5055777;28;20230;-69
2021/12/15 07:28:47;;;;;;;22.20;16.60;;;8.50;99.90;;;;;;5055779;28;20231;-69
2021/12/15 07:31:14;;;;;;;23.88;17.70;;;8.50;99.90;;;;;;5055985;28;20610;-69
2021/12/15 07:33:41;;;;;;;23.65;17.40;;;8.50;99.90;;;;;;5056124;28;20638;-69
2021/12/15 07:36:08;;;;;;;26.77;18.25;;;8.50;99.90;;;;;;5055882;28;20299;-69
2021/12/15 07:38:41;;;;;;;24.85;17.95;;;8.50;99.90;;;;;;5056115;28;20290;-69
2021/12/15 07:41:23;;;;;;;22.45;15.70;;;8.50;99.90;;;;;;5055733;28;20294;-69
2021/12/15 07:43:50;;;;;;;29.58;17.30;;;8.50;99.90;;;;;;5055895;28;20219;-69
2021/12/15 07:46:17;;;;;;;23.50;17.15;;;8.40;99.90;;;;;;5055718;28;20236;-69
2021/12/15 07:48:43;;;;;;;21.48;16.48;;;8.50;99.90;;;;;;5055674;28;20721;-69
2021/12/15 07:51:12;;;;;;;20.70;16.00;;;8.50;99.90;;;;;;5055905;28;20666;-69
2021/12/15 07:53:42;;;;;;;20.77;15.18;;;8.50;99.90;;;;;;5055242;28;20223;-69
2021/12/15 07:56:10;;;;;;;20.02;14.25;;;8.40;99.90;;;;;;5055522;28;20237;-69
2021/12/15 07:58:37;;;;;;;20.58;14.73;;;8.50;99.90;;;;;;5055081;28;20290;-69
2021/12/15 08:01:05;;;;;;;20.80;14.45;;;8.40;99.90;;;;;;5054824;28;20294;-69
2021/12/15 08:03:34;;;;;;;20.27;15.15;;;8.40;99.90;;;;;;5055109;28;20314;-69
2021/12/15 08:06:02;;;;;;;17.90;14.82;;;8.40;99.90;;;;;;5055252;28;20290;-69
2021/12/15 08:08:30;;;;;;;15.27;12.73;;;8.40;99.90;;;;;;5054900;28;20238;-69
2021/12/15 08:10:58;;;;;;;20.30;14.13;;;8.40;99.90;;;;;;5055236;28;20290;-69
2021/12/15 08:13:28;;;;;;;20.02;13.27;;;8.50;99.90;;;;;;5054638;28;20767;-69
2021/12/15 08:15:55;;;;;;;17.90;12.43;;;8.50;99.90;;;;;;5054893;28;20299;-69
2021/12/15 08:18:22;;;;;;;15.73;12.30;;;8.50;99.90;;;;;;5055277;28;20294;-69
2021/12/15 08:20:50;;;;;;;17.50;12.90;;;8.50;99.90;;;;;;5054928;28;20204;-69
2021/12/15 08:23:18;;;;;;;19.10;14.25;;;8.50;99.90;;;;;;5054738;28;20227;-69
2021/12/15 08:25:45;;;;;;;14.55;11.68;;;8.40;99.90;;;;;;5054310;28;20243;-69
2021/12/15 08:28:14;;;;;;;14.45;11.50;;;8.40;99.90;;;;;;5055050;28;20291;-69
2021/12/15 08:30:42;;;;;;;17.52;11.18;;;8.40;99.90;;;;;;5055028;28;20322;-69
2021/12/15 08:33:12;;;;;;;14.20;10.82;;;8.40;99.90;;;;;;5054566;28;20706;-69
2021/12/15 08:35:43;;;;;;;13.00;9.73;;;8.40;99.90;;;;;;5054646;28;20207;-69
2021/12/15 08:38:11;;;;;;;14.40;10.88;;;8.40;99.90;;;;;;5054723;28;20242;-69
2021/12/15 08:40:39;;;;;;;12.50;10.52;;;8.40;99.90;;;;;;5054742;28;20199;-69
2021/12/15 08:43:07;;;;;;;13.55;10.77;;;8.50;99.90;;;;;;5054781;28;20318;-69
2021/12/15 08:45:39;;;;;;;13.85;10.80;;;8.50;99.90;;;;;;5054643;28;20238;-69
2021/12/15 08:48:07;;;;;;;11.23;9.43;;;8.60;99.90;;;;;;5054384;28;20223;-69
2021/12/15 08:50:36;;;;;;;12.50;10.57;;;8.70;99.90;;;;;;5054588;28;20265;-69
2021/12/15 08:53:05;;;;;;;10.80;8.80;;;8.70;99.90;;;;;;5054276;28;20314;-69
2021/12/15 08:55:33;;;;;;;11.90;9.27;;;8.60;99.90;;;;;;5054439;28;20207;-69
2021/12/15 08:58:04;;;;;;;15.48;12.45;;;8.60;99.90;;;;;;5054452;28;20302;-69
2021/12/15 09:00:32;;;;;;;11.30;8.50;;;8.60;99.90;;;;;;5054345;28;20210;-69
2021/12/15 09:03:00;;;;;;;9.20;7.32;;;8.60;99.90;;;;;;5054179;28;20262;-69
2021/12/15 09:05:28;;;;;;;9.68;8.15;;;8.50;99.90;;;;;;5054089;28;20327;-69
2021/12/15 09:07:57;;;;;;;11.02;8.88;;;8.50;99.90;;;;;;5054283;28;20230;-69
2021/12/15 09:10:27;;;;;;;11.48;8.45;;;8.50;99.90;;;;;;5054537;28;20306;-69
2021/12/15 09:12:54;;;;;;;11.18;8.20;;;8.50;99.90;;;;;;5054106;28;20255;-69
2021/12/15 09:15:21;;;;;;;10.73;8.40;;;8.50;99.90;;;;;;5054040;28;20673;-69
2021/12/15 09:17:48;;;;;;;10.20;7.75;;;8.60;99.90;;;;;;5053984;28;20238;-69
2021/12/15 09:20:21;;;;;;;9.38;7.65;;;8.60;99.90;;;;;;5054260;28;20231;-69
2021/12/15 09:22:50;;;;;;;8.32;7.13;;;8.70;99.90;;;;;;5054271;28;20259;-69
2021/12/15 09:25:18;;;;;;;8.70;6.70;;;8.70;99.90;;;;;;5053659;28;20294;-69
2021/12/15 09:27:46;;;;;;;12.75;10.40;;;8.70;99.90;;;;;;5053914;28;20290;-69
2021/12/15 09:30:19;;;;;;;10.32;7.50;;;8.70;99.90;;;;;;5053613;28;20315;-69
2021/12/15 09:32:48;;;;;;;8.63;7.57;;;8.70;99.90;;;;;;5053944;28;20262;-70
2021/12/15 09:35:18;;;;;;;9.27;7.88;;;8.70;99.90;;;;;;5053854;28;20689;-69
2021/12/15 09:37:46;;;;;;;9.27;7.32;;;8.70;99.90;;;;;;5053615;28;20203;-69
2021/12/15 09:40:15;;;;;;;9.20;7.30;;;8.80;99.90;;;;;;5054005;28;20239;-69
2021/12/15 09:42:42;;;;;;;11.18;7.65;;;8.70;99.90;;;;;;5053724;28;20223;-69
2021/12/15 09:45:23;;;;;;;9.27;7.32;;;8.70;99.90;;;;;;5053787;28;20285;-69
2021/12/15 09:48:05;;;;;;;11.50;7.22;;;8.50;99.90;;;;;;5054048;28;20320;-69
2021/12/15 09:56:49;;;;;;;9.50;7.80;;;8.50;99.90;;;;;;5053181;28;20205;-69
2021/12/15 10:02:10;;;;;;;10.68;8.10;;;8.20;99.90;;;;;;5053767;28;20768;-69
2021/12/15 10:04:44;;;;;;;9.32;7.50;;;8.20;99.90;;;;;;5054011;28;20194;-69
2021/12/15 10:10:39;;;;;;;10.23;8.38;;;8.30;99.90;;;;;;5053446;28;20194;-69
2021/12/15 10:18:32;;;;;;;7.95;6.97;;;8.70;99.90;;;;;;5032934;28;20196;-69
2021/12/15 10:21:00;;;;;;;7.97;7.10;;;8.80;99.90;;;;;;5053853;28;20256;-69
2021/12/15 10:23:36;;;;;;;9.15;7.95;;;8.70;99.90;;;;;;5055321;28;20657;-69
2021/12/15 10:26:05;;;;;;;10.23;7.35;;;8.70;99.90;;;;;;5057370;28;20249;-69
2021/12/15 10:28:34;;;;;;;10.85;8.10;;;8.70;99.90;;;;;;5057597;28;20286;-69
2021/12/15 10:31:05;;;;;;;9.18;7.35;;;8.70;99.90;;;;;;5057534;28;20228;-69
2021/12/15 10:33:36;;;;;;;9.63;7.63;;;8.70;99.90;;;;;;5056964;28;20258;-69
2021/12/15 10:36:06;;;;;;;9.70;8.23;;;8.70;99.90;;;;;;5056522;28;20223;-69
2021/12/15 10:38:40;;;;;;;10.70;8.90;;;8.60;99.90;;;;;;5056856;28;20278;-69
2021/12/15 10:41:09;;;;;;;9.73;7.80;;;8.50;99.90;;;;;;5056907;28;20199;-69
2021/12/15 10:43:39;;;;;;;9.48;8.10;;;8.50;99.90;;;;;;5056707;28;20318;-69
2021/12/15 10:46:10;;;;;;;10.10;8.63;;;8.40;99.90;;;;;;5056337;28;20733;-69
2021/12/15 10:48:46;;;;;;;9.40;8.30;;;8.30;99.90;;;;;;5056619;28;20707;-69
2021/12/15 10:51:34;;;;;;;9.98;8.32;;;8.40;99.90;;;;;;5056819;28;20268;-69
2021/12/15 10:54:05;;;;;;;10.10;8.60;;;8.30;99.90;;;;;;5056685;28;20270;-69
2021/12/15 10:56:34;;;;;;;12.80;9.85;;;8.20;99.90;;;;;;5056258;28;20243;-69
2021/12/15 10:59:04;;;;;;;10.75;9.13;;;8.30;99.90;;;;;;5056330;28;20298;-69
2021/12/15 11:01:39;;;;;;;10.30;8.50;;;8.40;99.90;;;;;;5057159;28;20235;-69
2021/12/15 11:04:21;;;;;;;9.60;8.60;;;8.50;99.90;;;;;;5056224;28;20262;-69
2021/12/15 11:07:02;;;;;;;12.50;9.52;;;8.70;99.90;;;;;;5056650;28;20238;-69
2021/12/15 11:09:34;;;;;;;9.80;8.65;;;8.70;99.90;;;;;;5056128;28;20629;-69
2021/12/15 11:12:05;;;;;;;11.88;9.55;;;8.90;99.90;;;;;;5056311;28;20242;-70
2021/12/15 11:14:34;;;;;;;13.35;10.70;;;8.80;99.90;;;;;;5055911;28;20642;-69
2021/12/15 11:17:08;;;;;;;11.95;9.50;;;9.00;99.90;;;;;;5056379;28;20607;-69
2021/12/15 11:19:47;;;;;;;9.02;8.13;;;8.90;99.90;;;;;;5056110;28;20620;-69
2021/12/15 11:22:40;;;;;;;9.77;8.57;;;8.70;99.90;;;;;;5056138;28;20295;-69
2021/12/15 11:25:14;;;;;;;11.50;8.80;;;8.70;99.90;;;;;;5055864;28;20290;-69
2021/12/15 11:27:41;;;;;;;10.55;9.07;;;8.70;99.90;;;;;;5055959;28;20270;-69
2021/12/15 11:30:13;;;;;;;10.68;8.60;;;8.70;99.90;;;;;;5056256;28;20318;-69
2021/12/15 11:32:45;;;;;;;8.57;7.70;;;8.70;99.90;;;;;;5055720;28;20310;-69
2021/12/15 11:35:17;;;;;;;10.55;8.55;;;8.80;99.90;;;;;;5054289;28;20211;-69
2021/12/15 11:37:52;;;;;;;8.90;7.10;;;8.70;99.90;;;;;;5056113;28;20206;-69
2021/12/15 11:40:33;;;;;;;10.30;8.13;;;8.60;99.90;;;;;;5055793;28;20179;-69
2021/12/15 11:43:01;;;;;;;10.10;8.98;;;8.70;99.90;;;;;;5055538;28;20265;-69
2021/12/15 11:45:28;;;;;;;10.55;9.40;;;8.70;99.90;;;;;;5055476;28;20234;-69
2021/12/15 11:48:20;;;;;;;11.18;9.70;;;8.70;99.90;;;;;;5055692;28;20235;-69
2021/12/15 11:50:49;;;;;;;9.88;8.73;;;8.70;99.90;;;;;;5055358;28;20306;-69
2021/12/15 11:53:38;;;;;;;12.82;10.30;;;8.60;99.90;;;;;;5055370;28;20251;-69
2021/12/15 11:56:25;;;;;;;9.80;8.52;;;8.60;99.90;;;;;;5051126;28;20295;-69
2021/12/15 11:58:56;;;;;;;10.63;8.75;;;8.50;99.90;;;;;;5055029;28;20302;-69
2021/12/15 12:02:02;;;;;;;11.30;9.65;;;8.50;99.90;;;;;;5055426;28;20602;-69
2021/12/15 12:04:38;;;;;;;11.45;9.15;;;8.60;99.90;;;;;;4993926;28;20225;-69
2021/12/15 12:07:22;;;;;;;9.88;8.82;;;8.50;99.90;;;;;;5048672;28;20210;-69
2021/12/15 12:09:53;;;;;;;10.10;8.35;;;8.60;99.90;;;;;;5054743;28;20266;-69
2021/12/15 12:12:27;;;;;;;9.70;8.70;;;8.50;99.90;;;;;;5055539;28;20279;-69
2021/12/15 12:14:54;;;;;;;9.85;8.50;;;8.50;99.90;;;;;;5055201;28;20286;-69
2021/12/15 12:17:25;;;;;;;9.68;8.68;;;8.70;99.90;;;;;;5055338;28;20276;-69
2021/12/15 12:19:56;;;;;;;11.00;9.45;;;8.70;99.90;;;;;;5055688;28;20286;-69
2021/12/15 12:22:25;;;;;;;10.48;9.07;;;8.80;99.90;;;;;;5054829;28;20298;-69
2021/12/15 12:24:54;;;;;;;10.45;9.35;;;8.90;99.90;;;;;;5054605;28;20662;-69
2021/12/15 12:27:25;;;;;;;10.25;9.18;;;9.00;99.90;;;;;;5054892;28;20281;-69
2021/12/15 12:29:53;;;;;;;10.80;9.27;;;8.90;99.90;;;;;;5055407;28;20219;-69
2021/12/15 12:32:21;;;;;;;8.90;8.00;;;8.90;99.90;;;;;;5055098;28;20238;-69
2021/12/15 12:34:48;;;;;;;9.55;8.60;;;9.00;99.90;;;;;;5055263;28;20676;-69
2021/12/15 12:37:17;;;;;;;9.27;8.20;;;9.00;99.90;;;;;;5055269;28;20606;-69
2021/12/15 12:39:48;;;;;;;7.72;7.03;;;8.90;99.90;;;;;;5055095;28;20246;-69
2021/12/15 12:42:31;;;;;;;9.02;7.18;;;8.90;99.90;;;;;;5054622;28;20218;-69
2021/12/15 12:45:22;;;;;;;8.30;7.28;;;8.90;99.90;;;;;;5055329;28;20241;-70
2021/12/15 12:48:07;;;;;;;9.20;8.40;;;8.90;99.90;;;;;;5054690;28;20287;-69
2021/12/15 12:59:32;;;;;;;8.65;7.70;;;8.90;99.90;;;;;;5054454;28;20210;-69
2021/12/15 13:02:01;;;;;;;8.85;7.95;;;8.90;99.90;;;;;;5054655;28;20675;-69
2021/12/15 13:04:39;;;;;;;9.82;8.82;;;8.90;99.90;;;;;;5054446;28;20225;-69
2021/12/15 13:07:06;;;;;;;10.27;9.25;;;8.80;99.90;;;;;;5054651;28;20210;-69
2021/12/15 13:09:45;;;;;;;11.00;9.98;;;8.80;99.90;;;;;;5054538;28;20294;-69
2021/12/15 13:12:24;;;;;;;10.70;9.35;;;8.80;99.90;;;;;;5054253;28;20199;-69
2021/12/15 13:14:54;;;;;;;10.35;9.35;;;8.90;99.90;;;;;;5054262;28;20198;-69
2021/12/15 13:17:26;;;;;;;9.65;8.65;;;8.90;99.90;;;;;;5054278;28;20207;-69
2021/12/15 13:19:54;;;;;;;9.38;8.05;;;9.00;99.90;;;;;;5054149;28;20215;-69
2021/12/15 13:22:33;;;;;;;7.93;7.20;;;9.00;99.90;;;;;;5053831;28;20669;-69
2021/12/15 13:30:41;;;;;;;6.93;6.22;;;8.90;99.90;;;;;;5054157;28;20229;-69
2021/12/15 13:33:14;;;;;;;7.45;6.65;;;8.90;99.90;;;;;;5054259;28;20223;-69
2021/12/15 13:35:47;;;;;;;8.93;6.72;;;8.80;99.90;;;;;;5054178;28;20585;-69
2021/12/15 13:38:18;;;;;;;9.10;8.20;;;8.70;99.90;;;;;;5054236;28;20239;-69
2021/12/15 13:41:06;;;;;;;9.70;8.38;;;8.60;99.90;;;;;;5054250;28;20196;-69
2021/12/15 13:43:45;;;;;;;9.48;8.05;;;8.70;99.90;;;;;;5054217;28;20559;-69
2021/12/15 13:46:41;;;;;;;9.70;8.70;;;8.70;99.90;;;;;;5054076;28;20209;-69
2021/12/15 13:49:33;;;;;;;9.02;8.23;;;8.80;99.90;;;;;;5054227;28;20211;-69
2021/12/15 13:52:18;;;;;;;8.65;7.85;;;8.80;99.90;;;;;;5053863;28;20326;-69
2021/12/15 13:55:01;;;;;;;7.95;7.25;;;8.80;99.90;;;;;;5054289;28;20188;-70
2021/12/15 13:57:32;;;;;;;8.70;7.80;;;8.70;99.90;;;;;;5054377;28;20209;-70
2021/12/15 14:00:06;;;;;;;8.23;7.30;;;8.70;99.90;;;;;;5058439;28;20547;-68
2021/12/15 14:02:36;;;;;;;8.80;7.60;;;8.70;99.90;;;;;;5057670;28;20313;-68
2021/12/15 14:05:09;;;;;;;8.27;7.47;;;8.60;99.90;;;;;;5057701;28;20199;-69
2021/12/15 14:07:42;;;;;;;8.07;7.30;;;8.60;99.90;;;;;;5057918;28;20302;-69